sensor_id;sensor_type;location;lat;lon;timestamp;P1;durP1;ratioP1;P2;durP2;ratioP2
8399;SDS011;4237;47.030;15.396;2023-04-24T00:00:15;11.97;;;8.23;;
8399;SDS011;4237;47.030;15.396;2023-04-24T00:02:44;11.87;;;7.53;;
8399;SDS011;4237;47.030;15.396;2023-04-24T00:05:16;8.83;;;7.37;;
8399;SDS011;4237;47.030;15.396;2023-04-24T00:07:45;10.27;;;7.43;;
8399;SDS011;4237;47.030;15.396;2023-04-24T00:10:13;9.17;;;7.63;;
8399;SDS011;4237;47.030;15.396;2023-04-24T00:12:41;9.47;;;7.30;;
8399;SDS011;4237;47.030;15.396;2023-04-24T00:15:10;9.17;;;7.23;;
8399;SDS011;4237;47.030;15.396;2023-04-24T00:17:38;9.63;;;7.40;;
8399;SDS011;4237;47.030;15.396;2023-04-24T00:20:07;12.17;;;7.20;;
8399;SDS011;4237;47.030;15.396;2023-04-24T00:22:37;9.47;;;7.27;;
8399;SDS011;4237;47.030;15.396;2023-04-24T00:25:05;8.40;;;7.20;;
8399;SDS011;4237;47.030;15.396;2023-04-24T00:27:34;12.30;;;7.67;;
8399;SDS011;4237;47.030;15.396;2023-04-24T00:30:04;9.40;;;7.37;;
8399;SDS011;4237;47.030;15.396;2023-04-24T00:32:33;8.50;;;6.80;;
8399;SDS011;4237;47.030;15.396;2023-04-24T00:35:01;10.50;;;6.67;;
8399;SDS011;4237;47.030;15.396;2023-04-24T00:37:30;7.93;;;6.83;;
8399;SDS011;4237;47.030;15.396;2023-04-24T00:39:58;11.07;;;6.90;;
8399;SDS011;4237;47.030;15.396;2023-04-24T00:42:26;8.60;;;6.17;;
8399;SDS011;4237;47.030;15.396;2023-04-24T00:44:55;7.60;;;6.10;;
8399;SDS011;4237;47.030;15.396;2023-04-24T00:47:24;12.93;;;6.13;;
8399;SDS011;4237;47.030;15.396;2023-04-24T00:49:53;11.00;;;6.40;;
8399;SDS011;4237;47.030;15.396;2023-04-24T00:52:21;8.47;;;6.50;;
8399;SDS011;4237;47.030;15.396;2023-04-24T00:54:51;7.57;;;6.10;;
8399;SDS011;4237;47.030;15.396;2023-04-24T00:57:19;6.93;;;6.17;;
8399;SDS011;4237;47.030;15.396;2023-04-24T00:59:49;9.87;;;6.50;;
8399;SDS011;4237;47.030;15.396;2023-04-24T01:02:17;7.80;;;6.63;;
8399;SDS011;4237;47.030;15.396;2023-04-24T01:04:45;9.77;;;6.87;;
8399;SDS011;4237;47.030;15.396;2023-04-24T01:07:14;10.93;;;7.43;;
8399;SDS011;4237;47.030;15.396;2023-04-24T01:09:42;12.03;;;7.60;;
8399;SDS011;4237;47.030;15.396;2023-04-24T01:12:11;8.50;;;7.37;;
8399;SDS011;4237;47.030;15.396;2023-04-24T01:14:39;13.03;;;8.50;;
8399;SDS011;4237;47.030;15.396;2023-04-24T01:17:07;11.17;;;8.80;;
8399;SDS011;4237;47.030;15.396;2023-04-24T01:19:36;11.43;;;8.90;;
8399;SDS011;4237;47.030;15.396;2023-04-24T01:22:09;12.40;;;8.50;;
8399;SDS011;4237;47.030;15.396;2023-04-24T01:24:37;10.30;;;8.10;;
8399;SDS011;4237;47.030;15.396;2023-04-24T01:27:06;10.90;;;8.50;;
8399;SDS011;4237;47.030;15.396;2023-04-24T01:29:34;11.97;;;7.80;;
8399;SDS011;4237;47.030;15.396;2023-04-24T01:32:03;11.20;;;9.33;;
8399;SDS011;4237;47.030;15.396;2023-04-24T01:34:32;15.00;;;9.90;;
8399;SDS011;4237;47.030;15.396;2023-04-24T01:37:00;13.10;;;9.63;;
8399;SDS011;4237;47.030;15.396;2023-04-24T01:39:28;13.37;;;9.07;;
8399;SDS011;4237;47.030;15.396;2023-04-24T01:41:57;13.57;;;8.60;;
8399;SDS011;4237;47.030;15.396;2023-04-24T01:44:25;11.37;;;8.77;;
8399;SDS011;4237;47.030;15.396;2023-04-24T01:46:54;9.53;;;8.00;;
8399;SDS011;4237;47.030;15.396;2023-04-24T01:49:23;10.70;;;8.77;;
8399;SDS011;4237;47.030;15.396;2023-04-24T01:51:51;13.23;;;8.80;;
8399;SDS011;4237;47.030;15.396;2023-04-24T01:54:19;11.60;;;8.87;;
8399;SDS011;4237;47.030;15.396;2023-04-24T01:56:47;16.87;;;9.23;;
8399;SDS011;4237;47.030;15.396;2023-04-24T01:59:16;14.23;;;8.57;;
8399;SDS011;4237;47.030;15.396;2023-04-24T02:01:45;10.30;;;8.10;;
8399;SDS011;4237;47.030;15.396;2023-04-24T02:04:14;14.33;;;9.60;;
8399;SDS011;4237;47.030;15.396;2023-04-24T02:06:42;12.20;;;8.77;;
8399;SDS011;4237;47.030;15.396;2023-04-24T02:09:10;13.67;;;9.23;;
8399;SDS011;4237;47.030;15.396;2023-04-24T02:11:38;10.73;;;8.70;;
8399;SDS011;4237;47.030;15.396;2023-04-24T02:14:07;10.57;;;8.73;;
8399;SDS011;4237;47.030;15.396;2023-04-24T02:16:35;12.20;;;8.07;;
8399;SDS011;4237;47.030;15.396;2023-04-24T02:19:03;12.80;;;9.27;;
8399;SDS011;4237;47.030;15.396;2023-04-24T02:21:31;15.13;;;9.50;;
8399;SDS011;4237;47.030;15.396;2023-04-24T02:23:59;13.87;;;9.30;;
8399;SDS011;4237;47.030;15.396;2023-04-24T02:26:28;14.97;;;9.50;;
8399;SDS011;4237;47.030;15.396;2023-04-24T02:28:58;12.20;;;9.20;;
8399;SDS011;4237;47.030;15.396;2023-04-24T02:31:26;12.40;;;8.60;;
8399;SDS011;4237;47.030;15.396;2023-04-24T02:33:55;12.53;;;9.17;;
8399;SDS011;4237;47.030;15.396;2023-04-24T02:36:23;11.60;;;8.77;;
8399;SDS011;4237;47.030;15.396;2023-04-24T02:38:51;12.80;;;8.97;;
8399;SDS011;4237;47.030;15.396;2023-04-24T02:41:20;11.33;;;9.43;;
8399;SDS011;4237;47.030;15.396;2023-04-24T02:43:48;11.07;;;8.67;;
8399;SDS011;4237;47.030;15.396;2023-04-24T02:46:16;12.87;;;8.93;;
8399;SDS011;4237;47.030;15.396;2023-04-24T02:48:45;12.77;;;10.03;;
8399;SDS011;4237;47.030;15.396;2023-04-24T02:51:13;13.47;;;9.47;;
8399;SDS011;4237;47.030;15.396;2023-04-24T02:53:41;12.90;;;9.33;;
8399;SDS011;4237;47.030;15.396;2023-04-24T02:56:09;14.17;;;9.50;;
8399;SDS011;4237;47.030;15.396;2023-04-24T02:58:39;13.73;;;9.07;;
8399;SDS011;4237;47.030;15.396;2023-04-24T03:01:08;11.73;;;8.73;;
8399;SDS011;4237;47.030;15.396;2023-04-24T03:03:39;13.53;;;9.27;;
8399;SDS011;4237;47.030;15.396;2023-04-24T03:06:08;14.33;;;8.60;;
8399;SDS011;4237;47.030;15.396;2023-04-24T03:08:36;12.13;;;9.23;;
8399;SDS011;4237;47.030;15.396;2023-04-24T03:11:04;10.87;;;8.43;;
8399;SDS011;4237;47.030;15.396;2023-04-24T03:13:33;10.43;;;8.50;;
8399;SDS011;4237;47.030;15.396;2023-04-24T03:16:01;11.23;;;7.90;;
8399;SDS011;4237;47.030;15.396;2023-04-24T03:18:29;13.00;;;8.57;;
8399;SDS011;4237;47.030;15.396;2023-04-24T03:20:57;10.80;;;7.83;;
8399;SDS011;4237;47.030;15.396;2023-04-24T03:23:26;14.73;;;8.60;;
8399;SDS011;4237;47.030;15.396;2023-04-24T03:25:54;13.53;;;8.13;;
8399;SDS011;4237;47.030;15.396;2023-04-24T03:28:22;11.80;;;8.67;;
8399;SDS011;4237;47.030;15.396;2023-04-24T03:30:52;12.23;;;9.07;;
8399;SDS011;4237;47.030;15.396;2023-04-24T03:33:20;15.27;;;9.30;;
8399;SDS011;4237;47.030;15.396;2023-04-24T03:35:48;15.60;;;8.77;;
8399;SDS011;4237;47.030;15.396;2023-04-24T03:38:16;12.20;;;8.90;;
8399;SDS011;4237;47.030;15.396;2023-04-24T03:40:45;12.27;;;8.87;;
8399;SDS011;4237;47.030;15.396;2023-04-24T03:43:13;16.57;;;9.80;;
8399;SDS011;4237;47.030;15.396;2023-04-24T03:45:41;12.87;;;9.83;;
8399;SDS011;4237;47.030;15.396;2023-04-24T03:48:10;12.47;;;10.03;;
8399;SDS011;4237;47.030;15.396;2023-04-24T03:50:38;14.43;;;10.00;;
8399;SDS011;4237;47.030;15.396;2023-04-24T03:53:06;12.83;;;9.37;;
8399;SDS011;4237;47.030;15.396;2023-04-24T03:55:35;13.87;;;10.50;;
8399;SDS011;4237;47.030;15.396;2023-04-24T03:58:03;16.83;;;12.90;;
8399;SDS011;4237;47.030;15.396;2023-04-24T04:00:31;17.27;;;12.93;;
8399;SDS011;4237;47.030;15.396;2023-04-24T04:03:00;19.20;;;13.13;;
8399;SDS011;4237;47.030;15.396;2023-04-24T04:05:28;18.47;;;12.37;;
8399;SDS011;4237;47.030;15.396;2023-04-24T04:07:57;18.87;;;14.47;;
8399;SDS011;4237;47.030;15.396;2023-04-24T04:10:25;18.23;;;13.13;;
8399;SDS011;4237;47.030;15.396;2023-04-24T04:12:53;19.50;;;12.83;;
8399;SDS011;4237;47.030;15.396;2023-04-24T04:15:21;15.37;;;11.97;;
8399;SDS011;4237;47.030;15.396;2023-04-24T04:17:49;18.43;;;11.43;;
8399;SDS011;4237;47.030;15.396;2023-04-24T04:20:18;16.10;;;11.03;;
8399;SDS011;4237;47.030;15.396;2023-04-24T04:22:46;15.80;;;11.33;;
8399;SDS011;4237;47.030;15.396;2023-04-24T04:25:14;15.00;;;10.73;;
8399;SDS011;4237;47.030;15.396;2023-04-24T04:27:43;15.90;;;11.40;;
8399;SDS011;4237;47.030;15.396;2023-04-24T04:30:11;16.60;;;11.83;;
8399;SDS011;4237;47.030;15.396;2023-04-24T04:32:39;32.33;;;12.10;;
8399;SDS011;4237;47.030;15.396;2023-04-24T04:35:07;15.27;;;10.93;;
8399;SDS011;4237;47.030;15.396;2023-04-24T04:37:36;12.63;;;10.20;;
8399;SDS011;4237;47.030;15.396;2023-04-24T04:40:05;14.60;;;10.97;;
8399;SDS011;4237;47.030;15.396;2023-04-24T04:42:34;18.00;;;11.80;;
8399;SDS011;4237;47.030;15.396;2023-04-24T04:45:03;16.07;;;10.90;;
8399;SDS011;4237;47.030;15.396;2023-04-24T04:47:31;18.80;;;12.00;;
8399;SDS011;4237;47.030;15.396;2023-04-24T04:50:00;17.63;;;12.50;;
8399;SDS011;4237;47.030;15.396;2023-04-24T04:52:28;16.87;;;12.77;;
8399;SDS011;4237;47.030;15.396;2023-04-24T04:54:57;17.40;;;12.27;;
8399;SDS011;4237;47.030;15.396;2023-04-24T04:57:25;18.70;;;12.70;;
8399;SDS011;4237;47.030;15.396;2023-04-24T04:59:53;22.13;;;12.50;;
8399;SDS011;4237;47.030;15.396;2023-04-24T05:02:22;14.13;;;11.97;;
8399;SDS011;4237;47.030;15.396;2023-04-24T05:04:50;16.63;;;11.83;;
8399;SDS011;4237;47.030;15.396;2023-04-24T05:07:18;18.90;;;12.33;;
8399;SDS011;4237;47.030;15.396;2023-04-24T05:09:46;20.30;;;13.87;;
8399;SDS011;4237;47.030;15.396;2023-04-24T05:12:14;19.80;;;13.23;;
8399;SDS011;4237;47.030;15.396;2023-04-24T05:14:43;18.23;;;14.17;;
8399;SDS011;4237;47.030;15.396;2023-04-24T05:17:11;18.77;;;14.00;;
8399;SDS011;4237;47.030;15.396;2023-04-24T05:19:40;16.50;;;12.20;;
8399;SDS011;4237;47.030;15.396;2023-04-24T05:22:08;14.00;;;11.10;;
8399;SDS011;4237;47.030;15.396;2023-04-24T05:24:37;17.80;;;11.83;;
8399;SDS011;4237;47.030;15.396;2023-04-24T05:27:05;13.97;;;10.77;;
8399;SDS011;4237;47.030;15.396;2023-04-24T05:29:34;19.17;;;12.10;;
8399;SDS011;4237;47.030;15.396;2023-04-24T05:32:02;16.13;;;10.93;;
8399;SDS011;4237;47.030;15.396;2023-04-24T05:34:31;13.87;;;11.07;;
8399;SDS011;4237;47.030;15.396;2023-04-24T05:36:59;10.90;;;9.70;;
8399;SDS011;4237;47.030;15.396;2023-04-24T05:39:27;10.77;;;9.17;;
8399;SDS011;4237;47.030;15.396;2023-04-24T05:41:56;11.67;;;8.57;;
8399;SDS011;4237;47.030;15.396;2023-04-24T05:44:25;14.60;;;9.07;;
8399;SDS011;4237;47.030;15.396;2023-04-24T05:46:53;12.30;;;9.83;;
8399;SDS011;4237;47.030;15.396;2023-04-24T05:49:23;19.30;;;9.27;;
8399;SDS011;4237;47.030;15.396;2023-04-24T05:51:51;12.13;;;9.07;;
8399;SDS011;4237;47.030;15.396;2023-04-24T05:54:19;9.40;;;8.40;;
8399;SDS011;4237;47.030;15.396;2023-04-24T05:56:48;9.40;;;8.37;;
8399;SDS011;4237;47.030;15.396;2023-04-24T05:59:18;9.70;;;7.73;;
8399;SDS011;4237;47.030;15.396;2023-04-24T06:01:46;10.90;;;7.90;;
8399;SDS011;4237;47.030;15.396;2023-04-24T06:04:14;8.43;;;7.53;;
8399;SDS011;4237;47.030;15.396;2023-04-24T06:06:43;13.20;;;9.57;;
8399;SDS011;4237;47.030;15.396;2023-04-24T06:09:11;10.40;;;8.07;;
8399;SDS011;4237;47.030;15.396;2023-04-24T06:11:39;10.63;;;8.20;;
8399;SDS011;4237;47.030;15.396;2023-04-24T06:14:07;8.43;;;7.17;;
8399;SDS011;4237;47.030;15.396;2023-04-24T06:16:36;10.90;;;7.70;;
8399;SDS011;4237;47.030;15.396;2023-04-24T06:19:06;11.33;;;7.97;;
8399;SDS011;4237;47.030;15.396;2023-04-24T06:21:34;11.33;;;8.00;;
8399;SDS011;4237;47.030;15.396;2023-04-24T06:24:02;11.87;;;8.73;;
8399;SDS011;4237;47.030;15.396;2023-04-24T06:26:32;11.80;;;7.60;;
8399;SDS011;4237;47.030;15.396;2023-04-24T06:29:01;16.67;;;8.20;;
8399;SDS011;4237;47.030;15.396;2023-04-24T06:31:29;12.27;;;8.53;;
8399;SDS011;4237;47.030;15.396;2023-04-24T06:33:57;11.20;;;8.03;;
8399;SDS011;4237;47.030;15.396;2023-04-24T06:36:25;13.70;;;7.40;;
8399;SDS011;4237;47.030;15.396;2023-04-24T06:38:55;10.10;;;6.87;;
8399;SDS011;4237;47.030;15.396;2023-04-24T06:41:24;12.30;;;6.90;;
8399;SDS011;4237;47.030;15.396;2023-04-24T06:43:53;20.43;;;7.40;;
8399;SDS011;4237;47.030;15.396;2023-04-24T06:46:21;9.87;;;7.50;;
8399;SDS011;4237;47.030;15.396;2023-04-24T06:48:51;13.60;;;7.63;;
8399;SDS011;4237;47.030;15.396;2023-04-24T06:51:27;14.63;;;7.60;;
8399;SDS011;4237;47.030;15.396;2023-04-24T06:53:52;8.93;;;7.00;;
8399;SDS011;4237;47.030;15.396;2023-04-24T06:56:21;11.63;;;7.70;;
8399;SDS011;4237;47.030;15.396;2023-04-24T06:58:50;10.27;;;7.27;;
8399;SDS011;4237;47.030;15.396;2023-04-24T07:01:18;12.60;;;7.87;;
8399;SDS011;4237;47.030;15.396;2023-04-24T07:03:47;17.60;;;8.60;;
8399;SDS011;4237;47.030;15.396;2023-04-24T07:06:15;13.33;;;8.23;;
8399;SDS011;4237;47.030;15.396;2023-04-24T07:08:44;11.37;;;8.40;;
8399;SDS011;4237;47.030;15.396;2023-04-24T07:11:13;19.27;;;9.03;;
8399;SDS011;4237;47.030;15.396;2023-04-24T07:13:42;16.63;;;9.60;;
8399;SDS011;4237;47.030;15.396;2023-04-24T07:16:11;16.53;;;9.53;;
8399;SDS011;4237;47.030;15.396;2023-04-24T07:18:39;11.57;;;8.93;;
8399;SDS011;4237;47.030;15.396;2023-04-24T07:21:07;13.87;;;9.80;;
8399;SDS011;4237;47.030;15.396;2023-04-24T07:23:35;17.33;;;10.80;;
8399;SDS011;4237;47.030;15.396;2023-04-24T07:26:04;18.77;;;11.67;;
8399;SDS011;4237;47.030;15.396;2023-04-24T07:28:32;21.63;;;11.70;;
8399;SDS011;4237;47.030;15.396;2023-04-24T07:31:00;14.17;;;11.13;;
8399;SDS011;4237;47.030;15.396;2023-04-24T07:33:28;17.57;;;13.67;;
8399;SDS011;4237;47.030;15.396;2023-04-24T07:35:56;16.17;;;12.00;;
8399;SDS011;4237;47.030;15.396;2023-04-24T07:38:25;12.70;;;9.83;;
8399;SDS011;4237;47.030;15.396;2023-04-24T07:40:53;14.80;;;9.40;;
8399;SDS011;4237;47.030;15.396;2023-04-24T07:43:22;14.23;;;11.13;;
8399;SDS011;4237;47.030;15.396;2023-04-24T07:45:51;12.80;;;10.70;;
8399;SDS011;4237;47.030;15.396;2023-04-24T07:48:19;15.17;;;11.93;;
8399;SDS011;4237;47.030;15.396;2023-04-24T07:50:49;17.67;;;10.77;;
8399;SDS011;4237;47.030;15.396;2023-04-24T07:53:17;14.47;;;10.63;;
8399;SDS011;4237;47.030;15.396;2023-04-24T07:55:45;14.73;;;10.90;;
8399;SDS011;4237;47.030;15.396;2023-04-24T07:58:13;15.60;;;11.47;;
8399;SDS011;4237;47.030;15.396;2023-04-24T08:00:42;13.40;;;10.20;;
8399;SDS011;4237;47.030;15.396;2023-04-24T08:03:10;12.40;;;10.00;;
8399;SDS011;4237;47.030;15.396;2023-04-24T08:05:39;12.50;;;10.23;;
8399;SDS011;4237;47.030;15.396;2023-04-24T08:08:10;13.37;;;11.13;;
8399;SDS011;4237;47.030;15.396;2023-04-24T08:10:38;11.30;;;10.10;;
8399;SDS011;4237;47.030;15.396;2023-04-24T08:13:06;13.17;;;9.77;;
8399;SDS011;4237;47.030;15.396;2023-04-24T08:15:35;13.67;;;9.73;;
8399;SDS011;4237;47.030;15.396;2023-04-24T08:18:03;12.07;;;9.80;;
8399;SDS011;4237;47.030;15.396;2023-04-24T08:20:31;12.20;;;8.27;;
8399;SDS011;4237;47.030;15.396;2023-04-24T08:22:59;11.63;;;8.67;;
8399;SDS011;4237;47.030;15.396;2023-04-24T08:25:27;9.97;;;7.67;;
8399;SDS011;4237;47.030;15.396;2023-04-24T08:27:55;10.90;;;8.17;;
8399;SDS011;4237;47.030;15.396;2023-04-24T08:30:24;8.73;;;7.83;;
8399;SDS011;4237;47.030;15.396;2023-04-24T08:32:52;11.03;;;8.03;;
8399;SDS011;4237;47.030;15.396;2023-04-24T08:35:20;10.50;;;8.03;;
8399;SDS011;4237;47.030;15.396;2023-04-24T08:37:50;10.03;;;7.40;;
8399;SDS011;4237;47.030;15.396;2023-04-24T08:40:18;10.43;;;7.13;;
8399;SDS011;4237;47.030;15.396;2023-04-24T08:42:48;7.90;;;6.13;;
8399;SDS011;4237;47.030;15.396;2023-04-24T08:45:17;7.13;;;4.83;;
8399;SDS011;4237;47.030;15.396;2023-04-24T08:47:45;7.70;;;4.73;;
8399;SDS011;4237;47.030;15.396;2023-04-24T08:50:14;4.47;;;3.73;;
8399;SDS011;4237;47.030;15.396;2023-04-24T08:52:43;5.23;;;4.00;;
8399;SDS011;4237;47.030;15.396;2023-04-24T08:55:11;5.00;;;4.10;;
8399;SDS011;4237;47.030;15.396;2023-04-24T08:57:39;5.97;;;4.80;;
8399;SDS011;4237;47.030;15.396;2023-04-24T09:00:08;7.03;;;4.23;;
8399;SDS011;4237;47.030;15.396;2023-04-24T09:02:37;5.60;;;3.13;;
8399;SDS011;4237;47.030;15.396;2023-04-24T09:05:07;3.37;;;3.07;;
8399;SDS011;4237;47.030;15.396;2023-04-24T09:07:36;3.83;;;3.43;;
8399;SDS011;4237;47.030;15.396;2023-04-24T09:10:06;3.73;;;3.43;;
8399;SDS011;4237;47.030;15.396;2023-04-24T09:12:35;3.87;;;3.20;;
8399;SDS011;4237;47.030;15.396;2023-04-24T09:15:04;4.10;;;3.63;;
8399;SDS011;4237;47.030;15.396;2023-04-24T09:17:33;4.03;;;3.63;;
8399;SDS011;4237;47.030;15.396;2023-04-24T09:20:03;4.93;;;3.80;;
8399;SDS011;4237;47.030;15.396;2023-04-24T09:22:31;5.27;;;3.90;;
8399;SDS011;4237;47.030;15.396;2023-04-24T09:25:01;6.23;;;3.53;;
8399;SDS011;4237;47.030;15.396;2023-04-24T09:27:30;5.53;;;4.33;;
8399;SDS011;4237;47.030;15.396;2023-04-24T09:29:59;6.63;;;4.43;;
8399;SDS011;4237;47.030;15.396;2023-04-24T09:32:27;4.87;;;4.07;;
8399;SDS011;4237;47.030;15.396;2023-04-24T09:37:45;4.03;;;2.40;;
8399;SDS011;4237;47.030;15.396;2023-04-24T09:40:13;3.50;;;2.10;;
8399;SDS011;4237;47.030;15.396;2023-04-24T09:42:54;1.87;;;1.60;;
8399;SDS011;4237;47.030;15.396;2023-04-24T09:45:36;3.27;;;1.80;;
8399;SDS011;4237;47.030;15.396;2023-04-24T09:48:05;5.90;;;1.43;;
8399;SDS011;4237;47.030;15.396;2023-04-24T09:50:35;4.27;;;1.20;;
8399;SDS011;4237;47.030;15.396;2023-04-24T09:53:03;1.30;;;1.13;;
8399;SDS011;4237;47.030;15.396;2023-04-24T09:55:32;1.17;;;0.77;;
8399;SDS011;4237;47.030;15.396;2023-04-24T09:58:01;0.90;;;0.77;;
8399;SDS011;4237;47.030;15.396;2023-04-24T10:00:31;1.30;;;0.63;;
8399;SDS011;4237;47.030;15.396;2023-04-24T10:03:00;1.00;;;0.73;;
8399;SDS011;4237;47.030;15.396;2023-04-24T10:05:30;1.10;;;0.97;;
8399;SDS011;4237;47.030;15.396;2023-04-24T10:08:09;0.67;;;0.67;;
8399;SDS011;4237;47.030;15.396;2023-04-24T10:10:39;0.83;;;0.40;;
8399;SDS011;4237;47.030;15.396;2023-04-24T10:13:12;0.60;;;0.47;;
8399;SDS011;4237;47.030;15.396;2023-04-24T10:15:40;0.23;;;0.23;;
8399;SDS011;4237;47.030;15.396;2023-04-24T10:18:09;0.77;;;0.60;;
8399;SDS011;4237;47.030;15.396;2023-04-24T10:20:38;2.23;;;0.50;;
8399;SDS011;4237;47.030;15.396;2023-04-24T10:23:07;0.90;;;0.50;;
8399;SDS011;4237;47.030;15.396;2023-04-24T10:25:35;0.27;;;0.27;;
8399;SDS011;4237;47.030;15.396;2023-04-24T10:28:04;0.73;;;0.43;;
8399;SDS011;4237;47.030;15.396;2023-04-24T10:30:33;0.40;;;0.40;;
8399;SDS011;4237;47.030;15.396;2023-04-24T10:33:06;1.07;;;0.60;;
8399;SDS011;4237;47.030;15.396;2023-04-24T10:35:40;0.50;;;0.50;;
8399;SDS011;4237;47.030;15.396;2023-04-24T10:38:09;1.03;;;0.67;;
8399;SDS011;4237;47.030;15.396;2023-04-24T10:40:37;0.50;;;0.50;;
8399;SDS011;4237;47.030;15.396;2023-04-24T10:43:06;1.10;;;0.90;;
8399;SDS011;4237;47.030;15.396;2023-04-24T10:45:38;1.80;;;1.13;;
8399;SDS011;4237;47.030;15.396;2023-04-24T10:48:07;0.97;;;0.80;;
8399;SDS011;4237;47.030;15.396;2023-04-24T10:50:47;0.97;;;0.97;;
8399;SDS011;4237;47.030;15.396;2023-04-24T10:53:17;0.80;;;0.80;;
8399;SDS011;4237;47.030;15.396;2023-04-24T10:55:57;1.50;;;0.80;;
8399;SDS011;4237;47.030;15.396;2023-04-24T10:58:24;1.90;;;1.00;;
8399;SDS011;4237;47.030;15.396;2023-04-24T11:00:58;3.47;;;1.30;;
8399;SDS011;4237;47.030;15.396;2023-04-24T11:03:28;1.30;;;1.20;;
8399;SDS011;4237;47.030;15.396;2023-04-24T11:05:58;1.33;;;0.90;;
8399;SDS011;4237;47.030;15.396;2023-04-24T11:11:00;1.50;;;1.10;;
8399;SDS011;4237;47.030;15.396;2023-04-24T11:16:20;5.33;;;1.03;;
8399;SDS011;4237;47.030;15.396;2023-04-24T11:18:45;2.27;;;1.00;;
8399;SDS011;4237;47.030;15.396;2023-04-24T11:21:18;2.27;;;0.73;;
8399;SDS011;4237;47.030;15.396;2023-04-24T11:23:46;4.43;;;0.80;;
8399;SDS011;4237;47.030;15.396;2023-04-24T11:26:18;0.70;;;0.60;;
8399;SDS011;4237;47.030;15.396;2023-04-24T11:28:47;1.80;;;0.60;;
8399;SDS011;4237;47.030;15.396;2023-04-24T11:31:39;0.70;;;0.70;;
8399;SDS011;4237;47.030;15.396;2023-04-24T11:34:11;0.80;;;0.80;;
8399;SDS011;4237;47.030;15.396;2023-04-24T11:36:43;0.90;;;0.90;;
8399;SDS011;4237;47.030;15.396;2023-04-24T11:39:12;0.70;;;0.70;;
8399;SDS011;4237;47.030;15.396;2023-04-24T11:41:41;0.90;;;0.80;;
8399;SDS011;4237;47.030;15.396;2023-04-24T11:44:09;0.60;;;0.60;;
8399;SDS011;4237;47.030;15.396;2023-04-24T11:46:38;1.23;;;0.60;;
8399;SDS011;4237;47.030;15.396;2023-04-24T11:49:07;1.17;;;0.60;;
8399;SDS011;4237;47.030;15.396;2023-04-24T11:51:35;1.20;;;0.50;;
8399;SDS011;4237;47.030;15.396;2023-04-24T11:54:07;0.40;;;0.40;;
8399;SDS011;4237;47.030;15.396;2023-04-24T11:56:33;0.53;;;0.40;;
8399;SDS011;4237;47.030;15.396;2023-04-24T11:59:04;0.40;;;0.40;;
8399;SDS011;4237;47.030;15.396;2023-04-24T12:01:42;1.10;;;0.70;;
8399;SDS011;4237;47.030;15.396;2023-04-24T12:04:00;0.80;;;0.53;;
8399;SDS011;4237;47.030;15.396;2023-04-24T12:06:29;0.60;;;0.40;;
8399;SDS011;4237;47.030;15.396;2023-04-24T12:08:58;2.67;;;0.70;;
8399;SDS011;4237;47.030;15.396;2023-04-24T12:11:26;1.57;;;0.80;;
8399;SDS011;4237;47.030;15.396;2023-04-24T12:13:55;0.57;;;0.57;;
8399;SDS011;4237;47.030;15.396;2023-04-24T12:16:26;0.40;;;0.40;;
8399;SDS011;4237;47.030;15.396;2023-04-24T12:18:52;1.67;;;0.50;;
8399;SDS011;4237;47.030;15.396;2023-04-24T12:21:21;2.73;;;0.43;;
8399;SDS011;4237;47.030;15.396;2023-04-24T12:23:54;1.60;;;0.50;;
8399;SDS011;4237;47.030;15.396;2023-04-24T12:26:21;2.30;;;0.53;;
8399;SDS011;4237;47.030;15.396;2023-04-24T12:28:50;2.53;;;0.70;;
8399;SDS011;4237;47.030;15.396;2023-04-24T12:31:18;0.67;;;0.50;;
8399;SDS011;4237;47.030;15.396;2023-04-24T12:33:48;1.03;;;0.30;;
8399;SDS011;4237;47.030;15.396;2023-04-24T12:36:16;2.03;;;0.60;;
8399;SDS011;4237;47.030;15.396;2023-04-24T12:38:44;0.50;;;0.40;;
8399;SDS011;4237;47.030;15.396;2023-04-24T12:41:13;0.57;;;0.50;;
8399;SDS011;4237;47.030;15.396;2023-04-24T12:43:52;0.40;;;0.40;;
8399;SDS011;4237;47.030;15.396;2023-04-24T12:46:20;0.67;;;0.50;;
8399;SDS011;4237;47.030;15.396;2023-04-24T12:48:48;0.67;;;0.40;;
8399;SDS011;4237;47.030;15.396;2023-04-24T12:51:16;0.40;;;0.33;;
8399;SDS011;4237;47.030;15.396;2023-04-24T12:53:45;1.23;;;0.50;;
8399;SDS011;4237;47.030;15.396;2023-04-24T12:56:13;1.63;;;0.60;;
8399;SDS011;4237;47.030;15.396;2023-04-24T12:58:41;1.33;;;0.70;;
8399;SDS011;4237;47.030;15.396;2023-04-24T13:01:09;1.33;;;0.80;;
8399;SDS011;4237;47.030;15.396;2023-04-24T13:03:38;1.23;;;0.80;;
8399;SDS011;4237;47.030;15.396;2023-04-24T13:06:06;0.87;;;0.80;;
8399;SDS011;4237;47.030;15.396;2023-04-24T13:08:34;0.93;;;0.70;;
8399;SDS011;4237;47.030;15.396;2023-04-24T13:11:02;0.80;;;0.77;;
8399;SDS011;4237;47.030;15.396;2023-04-24T13:13:30;1.23;;;0.60;;
8399;SDS011;4237;47.030;15.396;2023-04-24T13:15:58;1.00;;;0.70;;
8399;SDS011;4237;47.030;15.396;2023-04-24T13:18:26;2.87;;;0.70;;
8399;SDS011;4237;47.030;15.396;2023-04-24T13:20:55;0.47;;;0.47;;
8399;SDS011;4237;47.030;15.396;2023-04-24T13:23:23;1.07;;;0.80;;
8399;SDS011;4237;47.030;15.396;2023-04-24T13:25:51;3.47;;;0.80;;
8399;SDS011;4237;47.030;15.396;2023-04-24T13:28:21;1.87;;;0.70;;
8399;SDS011;4237;47.030;15.396;2023-04-24T13:30:49;1.03;;;0.90;;
8399;SDS011;4237;47.030;15.396;2023-04-24T13:33:18;1.47;;;0.70;;
8399;SDS011;4237;47.030;15.396;2023-04-24T13:35:46;1.37;;;0.90;;
8399;SDS011;4237;47.030;15.396;2023-04-24T13:38:14;4.53;;;0.80;;
8399;SDS011;4237;47.030;15.396;2023-04-24T13:40:42;1.23;;;1.00;;
8399;SDS011;4237;47.030;15.396;2023-04-24T13:43:11;2.63;;;0.80;;
8399;SDS011;4237;47.030;15.396;2023-04-24T13:45:39;1.50;;;0.90;;
8399;SDS011;4237;47.030;15.396;2023-04-24T13:48:07;2.70;;;0.93;;
8399;SDS011;4237;47.030;15.396;2023-04-24T13:50:36;3.37;;;1.00;;
8399;SDS011;4237;47.030;15.396;2023-04-24T13:53:04;1.73;;;1.00;;
8399;SDS011;4237;47.030;15.396;2023-04-24T13:55:32;2.47;;;0.97;;
8399;SDS011;4237;47.030;15.396;2023-04-24T13:58:01;2.60;;;0.70;;
8399;SDS011;4237;47.030;15.396;2023-04-24T14:00:30;2.23;;;0.90;;
8399;SDS011;4237;47.030;15.396;2023-04-24T14:02:59;3.53;;;0.80;;
8399;SDS011;4237;47.030;15.396;2023-04-24T14:05:27;1.40;;;0.63;;
8399;SDS011;4237;47.030;15.396;2023-04-24T14:07:55;2.87;;;1.20;;
8399;SDS011;4237;47.030;15.396;2023-04-24T14:10:24;1.43;;;1.00;;
8399;SDS011;4237;47.030;15.396;2023-04-24T14:12:52;1.23;;;0.63;;
8399;SDS011;4237;47.030;15.396;2023-04-24T14:15:21;3.70;;;1.73;;
8399;SDS011;4237;47.030;15.396;2023-04-24T14:17:49;3.20;;;2.33;;
8399;SDS011;4237;47.030;15.396;2023-04-24T14:20:17;2.87;;;1.93;;
8399;SDS011;4237;47.030;15.396;2023-04-24T14:22:45;4.10;;;1.20;;
8399;SDS011;4237;47.030;15.396;2023-04-24T14:25:13;3.33;;;1.00;;
8399;SDS011;4237;47.030;15.396;2023-04-24T14:27:42;2.50;;;1.10;;
8399;SDS011;4237;47.030;15.396;2023-04-24T14:30:11;1.37;;;0.90;;
8399;SDS011;4237;47.030;15.396;2023-04-24T14:32:39;1.47;;;0.70;;
8399;SDS011;4237;47.030;15.396;2023-04-24T14:35:09;0.97;;;0.87;;
8399;SDS011;4237;47.030;15.396;2023-04-24T14:37:37;0.67;;;0.50;;
8399;SDS011;4237;47.030;15.396;2023-04-24T14:40:08;2.20;;;0.80;;
8399;SDS011;4237;47.030;15.396;2023-04-24T14:42:36;1.70;;;0.77;;
8399;SDS011;4237;47.030;15.396;2023-04-24T14:45:05;1.67;;;1.00;;
8399;SDS011;4237;47.030;15.396;2023-04-24T14:47:33;1.33;;;1.03;;
8399;SDS011;4237;47.030;15.396;2023-04-24T14:50:02;2.57;;;0.90;;
8399;SDS011;4237;47.030;15.396;2023-04-24T14:52:30;0.93;;;0.80;;
8399;SDS011;4237;47.030;15.396;2023-04-24T14:54:59;0.70;;;0.70;;
8399;SDS011;4237;47.030;15.396;2023-04-24T14:57:27;1.07;;;0.73;;
8399;SDS011;4237;47.030;15.396;2023-04-24T14:59:55;1.03;;;0.93;;
8399;SDS011;4237;47.030;15.396;2023-04-24T15:02:23;3.73;;;0.80;;
8399;SDS011;4237;47.030;15.396;2023-04-24T15:04:51;2.80;;;1.03;;
8399;SDS011;4237;47.030;15.396;2023-04-24T15:07:19;1.43;;;1.00;;
8399;SDS011;4237;47.030;15.396;2023-04-24T15:09:48;1.00;;;0.83;;